sensor_id;sensor_type;location;lat;lon;timestamp;P1;durP1;ratioP1;P2;durP2;ratioP2
58621;SDS011;44389;51.578;5.456;2022-11-15T00:01:19;184.45;;;76.43;;
58621;SDS011;44389;51.578;5.456;2022-11-15T00:03:44;194.93;;;79.10;;
58621;SDS011;44389;51.578;5.456;2022-11-15T00:06:10;175.75;;;75.82;;
58621;SDS011;44389;51.578;5.456;2022-11-15T00:08:36;196.77;;;78.78;;
58621;SDS011;44389;51.578;5.456;2022-11-15T00:11:02;190.23;;;78.30;;
58621;SDS011;44389;51.578;5.456;2022-11-15T00:13:27;177.77;;;75.80;;
58621;SDS011;44389;51.578;5.456;2022-11-15T00:15:56;183.32;;;78.07;;
58621;SDS011;44389;51.578;5.456;2022-11-15T00:18:23;168.82;;;74.60;;
58621;SDS011;44389;51.578;5.456;2022-11-15T00:20:48;174.75;;;74.10;;
58621;SDS011;44389;51.578;5.456;2022-11-15T00:23:13;174.57;;;73.90;;
58621;SDS011;44389;51.578;5.456;2022-11-15T00:25:38;176.85;;;76.47;;
58621;SDS011;44389;51.578;5.456;2022-11-15T00:28:04;164.70;;;72.15;;
58621;SDS011;44389;51.578;5.456;2022-11-15T00:30:29;152.32;;;68.90;;
58621;SDS011;44389;51.578;5.456;2022-11-15T00:32:55;145.70;;;69.43;;
58621;SDS011;44389;51.578;5.456;2022-11-15T00:35:20;155.32;;;70.80;;
58621;SDS011;44389;51.578;5.456;2022-11-15T00:37:46;147.40;;;66.63;;
58621;SDS011;44389;51.578;5.456;2022-11-15T00:40:12;148.40;;;67.93;;
58621;SDS011;44389;51.578;5.456;2022-11-15T00:42:38;143.73;;;67.93;;
58621;SDS011;44389;51.578;5.456;2022-11-15T00:45:04;139.10;;;67.00;;
58621;SDS011;44389;51.578;5.456;2022-11-15T00:47:30;140.35;;;66.53;;
58621;SDS011;44389;51.578;5.456;2022-11-15T00:49:55;134.65;;;65.10;;
58621;SDS011;44389;51.578;5.456;2022-11-15T00:52:20;140.02;;;67.40;;
58621;SDS011;44389;51.578;5.456;2022-11-15T00:54:45;137.65;;;63.88;;
58621;SDS011;44389;51.578;5.456;2022-11-15T00:57:11;137.98;;;63.35;;
58621;SDS011;44389;51.578;5.456;2022-11-15T00:59:36;137.63;;;63.15;;
58621;SDS011;44389;51.578;5.456;2022-11-15T01:02:01;119.03;;;59.72;;
58621;SDS011;44389;51.578;5.456;2022-11-15T01:04:26;125.10;;;59.97;;
58621;SDS011;44389;51.578;5.456;2022-11-15T01:06:52;126.78;;;60.50;;
58621;SDS011;44389;51.578;5.456;2022-11-15T01:09:18;131.30;;;61.13;;
58621;SDS011;44389;51.578;5.456;2022-11-15T01:11:43;124.80;;;61.25;;
58621;SDS011;44389;51.578;5.456;2022-11-15T01:14:08;127.13;;;62.53;;
58621;SDS011;44389;51.578;5.456;2022-11-15T01:16:33;122.20;;;61.13;;
58621;SDS011;44389;51.578;5.456;2022-11-15T01:18:59;127.65;;;59.72;;
58621;SDS011;44389;51.578;5.456;2022-11-15T01:21:25;114.05;;;60.33;;
58621;SDS011;44389;51.578;5.456;2022-11-15T01:23:53;116.03;;;59.95;;
58621;SDS011;44389;51.578;5.456;2022-11-15T01:26:20;115.43;;;58.70;;
58621;SDS011;44389;51.578;5.456;2022-11-15T01:28:46;126.28;;;60.80;;
58621;SDS011;44389;51.578;5.456;2022-11-15T01:31:13;114.05;;;57.45;;
58621;SDS011;44389;51.578;5.456;2022-11-15T01:33:40;121.28;;;60.05;;
58621;SDS011;44389;51.578;5.456;2022-11-15T01:36:12;117.53;;;59.50;;
58621;SDS011;44389;51.578;5.456;2022-11-15T01:38:40;115.05;;;60.80;;
58621;SDS011;44389;51.578;5.456;2022-11-15T01:41:05;118.20;;;59.55;;
58621;SDS011;44389;51.578;5.456;2022-11-15T01:43:32;118.63;;;60.75;;
58621;SDS011;44389;51.578;5.456;2022-11-15T01:46:04;119.03;;;59.58;;
58621;SDS011;44389;51.578;5.456;2022-11-15T01:48:40;122.57;;;56.42;;
58621;SDS011;44389;51.578;5.456;2022-11-15T01:51:07;117.97;;;59.15;;
58621;SDS011;44389;51.578;5.456;2022-11-15T01:53:35;118.97;;;59.38;;
58621;SDS011;44389;51.578;5.456;2022-11-15T01:56:05;114.53;;;58.53;;
58621;SDS011;44389;51.578;5.456;2022-11-15T01:58:34;124.50;;;59.90;;
58621;SDS011;44389;51.578;5.456;2022-11-15T02:01:00;118.68;;;59.58;;
58621;SDS011;44389;51.578;5.456;2022-11-15T02:03:26;118.43;;;58.60;;
58621;SDS011;44389;51.578;5.456;2022-11-15T02:06:00;120.30;;;58.25;;
58621;SDS011;44389;51.578;5.456;2022-11-15T02:08:28;126.10;;;60.90;;
58621;SDS011;44389;51.578;5.456;2022-11-15T02:10:54;114.72;;;58.47;;
58621;SDS011;44389;51.578;5.456;2022-11-15T02:13:19;113.43;;;57.60;;
58621;SDS011;44389;51.578;5.456;2022-11-15T02:15:48;112.45;;;57.97;;
58621;SDS011;44389;51.578;5.456;2022-11-15T02:18:25;115.85;;;58.30;;
58621;SDS011;44389;51.578;5.456;2022-11-15T02:21:06;119.28;;;58.17;;
58621;SDS011;44389;51.578;5.456;2022-11-15T02:27:05;111.00;;;56.55;;
58621;SDS011;44389;51.578;5.456;2022-11-15T02:29:53;116.20;;;58.08;;
58621;SDS011;44389;51.578;5.456;2022-11-15T02:32:48;110.80;;;58.65;;
58621;SDS011;44389;51.578;5.456;2022-11-15T02:41:04;121.22;;;61.70;;
58621;SDS011;44389;51.578;5.456;2022-11-15T02:46:40;113.93;;;56.25;;
58621;SDS011;44389;51.578;5.456;2022-11-15T02:49:28;116.97;;;60.38;;
58621;SDS011;44389;51.578;5.456;2022-11-15T02:51:56;125.72;;;62.40;;
58621;SDS011;44389;51.578;5.456;2022-11-15T02:54:22;126.50;;;61.20;;
58621;SDS011;44389;51.578;5.456;2022-11-15T02:56:49;118.78;;;60.33;;
58621;SDS011;44389;51.578;5.456;2022-11-15T02:59:24;114.60;;;59.35;;
58621;SDS011;44389;51.578;5.456;2022-11-15T03:02:18;116.20;;;59.33;;
58621;SDS011;44389;51.578;5.456;2022-11-15T03:11:15;110.60;;;56.80;;
58621;SDS011;44389;51.578;5.456;2022-11-15T03:13:33;117.47;;;61.28;;
58621;SDS011;44389;51.578;5.456;2022-11-15T03:19:18;115.22;;;57.50;;
58621;SDS011;44389;51.578;5.456;2022-11-15T03:21:51;112.70;;;57.35;;
58621;SDS011;44389;51.578;5.456;2022-11-15T03:24:19;110.93;;;58.03;;
58621;SDS011;44389;51.578;5.456;2022-11-15T03:26:47;112.32;;;57.50;;
58621;SDS011;44389;51.578;5.456;2022-11-15T03:29:14;111.35;;;58.40;;
58621;SDS011;44389;51.578;5.456;2022-11-15T03:31:44;106.68;;;56.67;;
58621;SDS011;44389;51.578;5.456;2022-11-15T03:34:30;109.03;;;56.45;;
58621;SDS011;44389;51.578;5.456;2022-11-15T03:36:59;111.00;;;57.10;;
58621;SDS011;44389;51.578;5.456;2022-11-15T03:39:25;120.78;;;58.63;;
58621;SDS011;44389;51.578;5.456;2022-11-15T03:44:48;112.97;;;58.30;;
58621;SDS011;44389;51.578;5.456;2022-11-15T03:47:36;116.68;;;58.00;;
58621;SDS011;44389;51.578;5.456;2022-11-15T03:50:19;111.75;;;57.75;;
58621;SDS011;44389;51.578;5.456;2022-11-15T03:52:46;114.30;;;59.70;;
58621;SDS011;44389;51.578;5.456;2022-11-15T03:55:14;124.50;;;59.58;;
58621;SDS011;44389;51.578;5.456;2022-11-15T03:57:41;117.47;;;60.58;;
58621;SDS011;44389;51.578;5.456;2022-11-15T04:00:07;123.55;;;62.40;;
58621;SDS011;44389;51.578;5.456;2022-11-15T04:02:33;135.10;;;63.63;;
58621;SDS011;44389;51.578;5.456;2022-11-15T04:04:58;129.10;;;63.97;;
58621;SDS011;44389;51.578;5.456;2022-11-15T04:07:23;134.48;;;63.22;;
58621;SDS011;44389;51.578;5.456;2022-11-15T04:09:48;133.70;;;66.30;;
58621;SDS011;44389;51.578;5.456;2022-11-15T04:12:31;143.85;;;68.20;;
58621;SDS011;44389;51.578;5.456;2022-11-15T04:15:04;143.82;;;68.63;;
58621;SDS011;44389;51.578;5.456;2022-11-15T04:17:43;152.95;;;69.75;;
58621;SDS011;44389;51.578;5.456;2022-11-15T04:20:14;143.23;;;68.15;;
58621;SDS011;44389;51.578;5.456;2022-11-15T04:23:00;151.50;;;70.32;;
58621;SDS011;44389;51.578;5.456;2022-11-15T04:25:46;159.57;;;70.28;;
58621;SDS011;44389;51.578;5.456;2022-11-15T04:28:14;150.13;;;68.05;;
58621;SDS011;44389;51.578;5.456;2022-11-15T04:30:39;144.20;;;68.38;;
58621;SDS011;44389;51.578;5.456;2022-11-15T04:33:05;147.52;;;68.70;;
58621;SDS011;44389;51.578;5.456;2022-11-15T04:35:30;159.07;;;67.50;;
58621;SDS011;44389;51.578;5.456;2022-11-15T04:37:56;151.25;;;69.93;;
58621;SDS011;44389;51.578;5.456;2022-11-15T04:40:22;141.70;;;68.43;;
58621;SDS011;44389;51.578;5.456;2022-11-15T04:42:47;152.52;;;69.30;;
58621;SDS011;44389;51.578;5.456;2022-11-15T04:45:12;153.85;;;66.82;;
58621;SDS011;44389;51.578;5.456;2022-11-15T04:47:37;142.75;;;68.13;;
58621;SDS011;44389;51.578;5.456;2022-11-15T04:50:03;145.70;;;69.43;;
58621;SDS011;44389;51.578;5.456;2022-11-15T04:52:28;144.50;;;66.45;;
58621;SDS011;44389;51.578;5.456;2022-11-15T04:54:54;140.00;;;64.28;;
58621;SDS011;44389;51.578;5.456;2022-11-15T04:57:19;140.27;;;64.30;;
58621;SDS011;44389;51.578;5.456;2022-11-15T04:59:44;140.23;;;65.43;;
58621;SDS011;44389;51.578;5.456;2022-11-15T05:02:10;146.30;;;64.63;;
58621;SDS011;44389;51.578;5.456;2022-11-15T05:04:35;138.05;;;66.15;;
58621;SDS011;44389;51.578;5.456;2022-11-15T05:07:00;146.00;;;67.55;;
58621;SDS011;44389;51.578;5.456;2022-11-15T05:09:27;135.20;;;61.63;;
58621;SDS011;44389;51.578;5.456;2022-11-15T05:11:52;139.05;;;63.67;;
58621;SDS011;44389;51.578;5.456;2022-11-15T05:14:17;139.07;;;65.40;;
58621;SDS011;44389;51.578;5.456;2022-11-15T05:16:42;150.15;;;65.35;;
58621;SDS011;44389;51.578;5.456;2022-11-15T05:19:08;136.95;;;65.05;;
58621;SDS011;44389;51.578;5.456;2022-11-15T05:21:33;139.60;;;63.28;;
58621;SDS011;44389;51.578;5.456;2022-11-15T05:23:59;137.48;;;63.42;;
58621;SDS011;44389;51.578;5.456;2022-11-15T05:26:25;144.35;;;64.05;;
58621;SDS011;44389;51.578;5.456;2022-11-15T05:28:52;142.52;;;63.92;;
58621;SDS011;44389;51.578;5.456;2022-11-15T05:31:19;126.93;;;66.28;;
58621;SDS011;44389;51.578;5.456;2022-11-15T05:33:44;136.68;;;64.95;;
58621;SDS011;44389;51.578;5.456;2022-11-15T05:36:12;134.93;;;65.25;;
58621;SDS011;44389;51.578;5.456;2022-11-15T05:38:42;131.93;;;62.33;;
58621;SDS011;44389;51.578;5.456;2022-11-15T05:41:08;133.95;;;62.97;;
58621;SDS011;44389;51.578;5.456;2022-11-15T05:43:34;144.43;;;65.80;;
58621;SDS011;44389;51.578;5.456;2022-11-15T05:46:03;138.95;;;64.20;;
58621;SDS011;44389;51.578;5.456;2022-11-15T05:48:29;136.63;;;63.28;;
58621;SDS011;44389;51.578;5.456;2022-11-15T05:50:55;134.23;;;63.13;;
58621;SDS011;44389;51.578;5.456;2022-11-15T05:53:21;135.10;;;61.78;;
58621;SDS011;44389;51.578;5.456;2022-11-15T05:55:49;129.80;;;61.42;;
58621;SDS011;44389;51.578;5.456;2022-11-15T05:58:15;129.80;;;61.63;;
58621;SDS011;44389;51.578;5.456;2022-11-15T06:00:40;134.23;;;61.83;;
58621;SDS011;44389;51.578;5.456;2022-11-15T06:03:08;135.00;;;62.58;;
58621;SDS011;44389;51.578;5.456;2022-11-15T06:05:33;137.73;;;62.72;;
58621;SDS011;44389;51.578;5.456;2022-11-15T06:07:58;134.00;;;63.13;;
58621;SDS011;44389;51.578;5.456;2022-11-15T06:10:24;135.32;;;61.70;;
58621;SDS011;44389;51.578;5.456;2022-11-15T06:12:56;126.90;;;61.00;;
58621;SDS011;44389;51.578;5.456;2022-11-15T06:15:24;137.00;;;59.90;;
58621;SDS011;44389;51.578;5.456;2022-11-15T06:17:49;133.93;;;63.47;;
58621;SDS011;44389;51.578;5.456;2022-11-15T06:20:14;135.18;;;61.80;;
58621;SDS011;44389;51.578;5.456;2022-11-15T06:22:40;121.63;;;57.47;;
58621;SDS011;44389;51.578;5.456;2022-11-15T06:25:05;132.85;;;60.38;;
58621;SDS011;44389;51.578;5.456;2022-11-15T06:27:31;124.40;;;59.40;;
58621;SDS011;44389;51.578;5.456;2022-11-15T06:29:56;130.07;;;60.95;;
58621;SDS011;44389;51.578;5.456;2022-11-15T06:32:21;131.38;;;60.47;;
58621;SDS011;44389;51.578;5.456;2022-11-15T06:34:46;139.63;;;63.05;;
58621;SDS011;44389;51.578;5.456;2022-11-15T06:37:12;126.20;;;59.15;;
58621;SDS011;44389;51.578;5.456;2022-11-15T06:39:37;126.32;;;60.17;;
58621;SDS011;44389;51.578;5.456;2022-11-15T06:42:02;125.80;;;59.08;;
58621;SDS011;44389;51.578;5.456;2022-11-15T06:44:28;122.85;;;58.65;;
58621;SDS011;44389;51.578;5.456;2022-11-15T06:46:53;126.75;;;58.63;;
58621;SDS011;44389;51.578;5.456;2022-11-15T06:49:18;124.35;;;58.97;;
58621;SDS011;44389;51.578;5.456;2022-11-15T06:51:43;117.35;;;57.85;;
58621;SDS011;44389;51.578;5.456;2022-11-15T06:54:09;117.07;;;57.85;;
58621;SDS011;44389;51.578;5.456;2022-11-15T06:56:34;122.95;;;57.00;;
58621;SDS011;44389;51.578;5.456;2022-11-15T06:58:59;115.55;;;54.13;;
58621;SDS011;44389;51.578;5.456;2022-11-15T07:01:25;107.80;;;51.80;;
58621;SDS011;44389;51.578;5.456;2022-11-15T07:03:50;106.40;;;52.42;;
58621;SDS011;44389;51.578;5.456;2022-11-15T07:06:15;96.68;;;49.35;;
58621;SDS011;44389;51.578;5.456;2022-11-15T07:08:40;99.32;;;47.78;;
58621;SDS011;44389;51.578;5.456;2022-11-15T07:11:07;101.60;;;47.78;;
58621;SDS011;44389;51.578;5.456;2022-11-15T07:13:33;84.70;;;45.95;;
58621;SDS011;44389;51.578;5.456;2022-11-15T07:16:03;98.60;;;47.60;;
58621;SDS011;44389;51.578;5.456;2022-11-15T07:18:30;91.70;;;45.30;;
58621;SDS011;44389;51.578;5.456;2022-11-15T07:20:59;90.45;;;43.72;;
58621;SDS011;44389;51.578;5.456;2022-11-15T07:23:25;88.15;;;43.50;;
58621;SDS011;44389;51.578;5.456;2022-11-15T07:25:50;90.57;;;43.70;;
58621;SDS011;44389;51.578;5.456;2022-11-15T07:28:16;96.18;;;44.92;;
58621;SDS011;44389;51.578;5.456;2022-11-15T07:30:41;96.82;;;45.42;;
58621;SDS011;44389;51.578;5.456;2022-11-15T07:33:06;86.18;;;43.90;;
58621;SDS011;44389;51.578;5.456;2022-11-15T07:35:31;86.80;;;43.08;;
58621;SDS011;44389;51.578;5.456;2022-11-15T07:37:57;91.53;;;43.90;;
58621;SDS011;44389;51.578;5.456;2022-11-15T07:40:25;78.07;;;41.35;;
58621;SDS011;44389;51.578;5.456;2022-11-15T07:42:51;84.00;;;42.20;;
58621;SDS011;44389;51.578;5.456;2022-11-15T07:45:21;82.75;;;42.42;;
58621;SDS011;44389;51.578;5.456;2022-11-15T07:47:48;87.30;;;43.45;;
58621;SDS011;44389;51.578;5.456;2022-11-15T07:50:14;88.85;;;43.00;;
58621;SDS011;44389;51.578;5.456;2022-11-15T07:52:40;84.95;;;41.75;;
58621;SDS011;44389;51.578;5.456;2022-11-15T07:55:05;86.68;;;43.47;;
58621;SDS011;44389;51.578;5.456;2022-11-15T07:57:31;76.60;;;41.47;;
58621;SDS011;44389;51.578;5.456;2022-11-15T07:59:56;88.70;;;41.85;;
58621;SDS011;44389;51.578;5.456;2022-11-15T08:02:22;90.28;;;40.60;;
58621;SDS011;44389;51.578;5.456;2022-11-15T08:04:47;78.78;;;40.60;;
58621;SDS011;44389;51.578;5.456;2022-11-15T08:07:12;74.75;;;38.58;;
58621;SDS011;44389;51.578;5.456;2022-11-15T08:09:38;83.10;;;40.22;;
58621;SDS011;44389;51.578;5.456;2022-11-15T08:12:03;79.88;;;39.05;;
58621;SDS011;44389;51.578;5.456;2022-11-15T08:14:29;83.47;;;40.22;;
58621;SDS011;44389;51.578;5.456;2022-11-15T08:16:54;72.97;;;37.47;;
58621;SDS011;44389;51.578;5.456;2022-11-15T08:19:20;76.95;;;39.58;;
58621;SDS011;44389;51.578;5.456;2022-11-15T08:21:45;71.05;;;38.38;;
58621;SDS011;44389;51.578;5.456;2022-11-15T08:24:10;72.05;;;38.38;;
58621;SDS011;44389;51.578;5.456;2022-11-15T08:26:36;74.50;;;35.25;;
58621;SDS011;44389;51.578;5.456;2022-11-15T08:29:01;72.28;;;35.67;;
58621;SDS011;44389;51.578;5.456;2022-11-15T08:31:26;72.53;;;37.08;;
58621;SDS011;44389;51.578;5.456;2022-11-15T08:33:52;67.07;;;34.22;;
58621;SDS011;44389;51.578;5.456;2022-11-15T08:36:17;65.88;;;32.97;;
58621;SDS011;44389;51.578;5.456;2022-11-15T08:38:42;60.50;;;33.28;;
58621;SDS011;44389;51.578;5.456;2022-11-15T08:41:28;63.60;;;32.00;;
58621;SDS011;44389;51.578;5.456;2022-11-15T08:43:55;68.45;;;31.45;;
58621;SDS011;44389;51.578;5.456;2022-11-15T08:46:21;61.20;;;30.75;;
58621;SDS011;44389;51.578;5.456;2022-11-15T08:48:46;53.13;;;28.25;;
58621;SDS011;44389;51.578;5.456;2022-11-15T08:51:11;63.17;;;29.17;;
58621;SDS011;44389;51.578;5.456;2022-11-15T08:53:37;58.83;;;28.40;;
58621;SDS011;44389;51.578;5.456;2022-11-15T08:56:02;53.38;;;28.92;;
58621;SDS011;44389;51.578;5.456;2022-11-15T08:58:32;53.38;;;27.77;;
58621;SDS011;44389;51.578;5.456;2022-11-15T09:00:58;51.97;;;28.88;;
58621;SDS011;44389;51.578;5.456;2022-11-15T09:03:23;54.22;;;28.75;;
58621;SDS011;44389;51.578;5.456;2022-11-15T09:05:48;56.67;;;28.83;;
58621;SDS011;44389;51.578;5.456;2022-11-15T09:08:18;48.72;;;27.85;;
58621;SDS011;44389;51.578;5.456;2022-11-15T09:10:43;43.28;;;23.98;;
58621;SDS011;44389;51.578;5.456;2022-11-15T09:13:09;39.80;;;22.35;;
58621;SDS011;44389;51.578;5.456;2022-11-15T09:15:34;38.58;;;22.20;;
58621;SDS011;44389;51.578;5.456;2022-11-15T09:17:59;37.97;;;20.17;;
58621;SDS011;44389;51.578;5.456;2022-11-15T09:20:25;31.65;;;18.83;;
58621;SDS011;44389;51.578;5.456;2022-11-15T09:22:50;35.40;;;18.67;;
58621;SDS011;44389;51.578;5.456;2022-11-15T09:25:15;28.73;;;15.48;;
58621;SDS011;44389;51.578;5.456;2022-11-15T09:27:40;27.23;;;14.93;;
58621;SDS011;44389;51.578;5.456;2022-11-15T09:30:06;25.60;;;15.63;;
58621;SDS011;44389;51.578;5.456;2022-11-15T09:32:31;24.40;;;14.50;;
58621;SDS011;44389;51.578;5.456;2022-11-15T09:34:57;30.23;;;14.30;;
58621;SDS011;44389;51.578;5.456;2022-11-15T09:37:22;23.40;;;13.05;;
58621;SDS011;44389;51.578;5.456;2022-11-15T09:39:47;23.85;;;14.23;;
58621;SDS011;44389;51.578;5.456;2022-11-15T09:42:27;25.15;;;13.32;;
58621;SDS011;44389;51.578;5.456;2022-11-15T09:53:15;22.27;;;11.80;;
58621;SDS011;44389;51.578;5.456;2022-11-15T10:01:39;16.10;;;8.77;;
58621;SDS011;44389;51.578;5.456;2022-11-15T10:04:08;20.60;;;8.00;;
58621;SDS011;44389;51.578;5.456;2022-11-15T10:06:34;14.35;;;6.35;;
58621;SDS011;44389;51.578;5.456;2022-11-15T10:09:09;14.40;;;5.95;;
58621;SDS011;44389;51.578;5.456;2022-11-15T10:11:40;17.25;;;5.20;;
58621;SDS011;44389;51.578;5.456;2022-11-15T10:14:20;12.55;;;4.50;;
58621;SDS011;44389;51.578;5.456;2022-11-15T10:17:09;16.17;;;4.63;;
58621;SDS011;44389;51.578;5.456;2022-11-15T10:22:24;13.80;;;4.22;;
58621;SDS011;44389;51.578;5.456;2022-11-15T10:24:50;10.90;;;4.07;;
58621;SDS011;44389;51.578;5.456;2022-11-15T10:27:23;12.07;;;4.07;;
58621;SDS011;44389;51.578;5.456;2022-11-15T10:29:49;13.60;;;4.10;;
58621;SDS011;44389;51.578;5.456;2022-11-15T10:32:17;17.85;;;3.80;;
58621;SDS011;44389;51.578;5.456;2022-11-15T10:34:45;13.98;;;3.95;;
58621;SDS011;44389;51.578;5.456;2022-11-15T10:37:11;10.77;;;3.42;;
58621;SDS011;44389;51.578;5.456;2022-11-15T10:39:36;12.90;;;3.20;;
58621;SDS011;44389;51.578;5.456;2022-11-15T10:42:15;11.60;;;3.33;;
58621;SDS011;44389;51.578;5.456;2022-11-15T10:44:43;14.95;;;3.28;;
58621;SDS011;44389;51.578;5.456;2022-11-15T10:52:24;11.13;;;3.25;;
58621;SDS011;44389;51.578;5.456;2022-11-15T10:55:35;15.70;;;3.50;;
58621;SDS011;44389;51.578;5.456;2022-11-15T10:57:47;12.15;;;3.50;;
58621;SDS011;44389;51.578;5.456;2022-11-15T11:03:05;17.38;;;5.25;;
58621;SDS011;44389;51.578;5.456;2022-11-15T11:05:37;12.27;;;4.13;;
58621;SDS011;44389;51.578;5.456;2022-11-15T11:08:24;19.30;;;7.45;;
58621;SDS011;44389;51.578;5.456;2022-11-15T11:10:56;18.13;;;7.57;;
58621;SDS011;44389;51.578;5.456;2022-11-15T11:13:27;11.23;;;3.78;;
58621;SDS011;44389;51.578;5.456;2022-11-15T11:21:34;17.23;;;4.30;;
58621;SDS011;44389;51.578;5.456;2022-11-15T11:24:14;17.83;;;6.72;;
58621;SDS011;44389;51.578;5.456;2022-11-15T11:37:46;17.70;;;4.50;;
58621;SDS011;44389;51.578;5.456;2022-11-15T11:43:09;21.70;;;6.00;;
58621;SDS011;44389;51.578;5.456;2022-11-15T11:45:45;17.10;;;4.30;;
58621;SDS011;44389;51.578;5.456;2022-11-15T11:48:44;17.52;;;4.18;;
58621;SDS011;44389;51.578;5.456;2022-11-15T11:51:14;16.50;;;4.13;;
58621;SDS011;44389;51.578;5.456;2022-11-15T11:53:50;15.27;;;3.45;;
58621;SDS011;44389;51.578;5.456;2022-11-15T11:56:27;18.02;;;3.53;;
58621;SDS011;44389;51.578;5.456;2022-11-15T11:58:55;19.80;;;3.75;;
58621;SDS011;44389;51.578;5.456;2022-11-15T12:01:29;17.60;;;3.58;;
58621;SDS011;44389;51.578;5.456;2022-11-15T12:03:59;17.15;;;3.47;;
58621;SDS011;44389;51.578;5.456;2022-11-15T12:06:46;15.25;;;3.85;;
58621;SDS011;44389;51.578;5.456;2022-11-15T12:09:15;16.35;;;3.63;;
58621;SDS011;44389;51.578;5.456;2022-11-15T12:14:23;16.02;;;3.50;;
58621;SDS011;44389;51.578;5.456;2022-11-15T12:16:58;14.90;;;4.15;;
58621;SDS011;44389;51.578;5.456;2022-11-15T12:19:23;18.02;;;4.60;;
58621;SDS011;44389;51.578;5.456;2022-11-15T12:22:04;19.65;;;5.97;;
58621;SDS011;44389;51.578;5.456;2022-11-15T12:29:44;13.63;;;3.40;;
58621;SDS011;44389;51.578;5.456;2022-11-15T12:32:30;18.02;;;4.05;;
58621;SDS011;44389;51.578;5.456;2022-11-15T12:34:58;16.00;;;3.80;;
58621;SDS011;44389;51.578;5.456;2022-11-15T12:40:13;13.38;;;3.70;;
58621;SDS011;44389;51.578;5.456;2022-11-15T12:45:39;16.83;;;3.38;;
58621;SDS011;44389;51.578;5.456;2022-11-15T13:01:52;14.18;;;3.60;;
58621;SDS011;44389;51.578;5.456;2022-11-15T13:11:54;12.77;;;3.10;;
58621;SDS011;44389;51.578;5.456;2022-11-15T13:17:02;12.57;;;3.17;;
58621;SDS011;44389;51.578;5.456;2022-11-15T13:19:59;12.93;;;2.95;;
58621;SDS011;44389;51.578;5.456;2022-11-15T13:22:27;11.30;;;2.85;;
58621;SDS011;44389;51.578;5.456;2022-11-15T13:25:19;11.80;;;3.08;;
58621;SDS011;44389;51.578;5.456;2022-11-15T13:27:47;14.20;;;3.05;;
58621;SDS011;44389;51.578;5.456;2022-11-15T13:32:48;12.75;;;3.30;;
58621;SDS011;44389;51.578;5.456;2022-11-15T13:35:18;13.38;;;3.53;;
58621;SDS011;44389;51.578;5.456;2022-11-15T13:37:47;10.93;;;3.28;;
58621;SDS011;44389;51.578;5.456;2022-11-15T13:40:18;17.00;;;3.95;;
58621;SDS011;44389;51.578;5.456;2022-11-15T13:42:55;14.25;;;3.28;;
58621;SDS011;44389;51.578;5.456;2022-11-15T13:45:22;11.32;;;3.13;;
58621;SDS011;44389;51.578;5.456;2022-11-15T13:47:55;10.38;;;2.80;;
58621;SDS011;44389;51.578;5.456;2022-11-15T13:50:22;16.10;;;3.30;;
58621;SDS011;44389;51.578;5.456;2022-11-15T13:52:51;15.52;;;3.78;;
58621;SDS011;44389;51.578;5.456;2022-11-15T13:55:19;21.37;;;3.67;;
58621;SDS011;44389;51.578;5.456;2022-11-15T13:57:54;16.02;;;4.10;;
58621;SDS011;44389;51.578;5.456;2022-11-15T14:02:51;19.48;;;3.60;;
58621;SDS011;44389;51.578;5.456;2022-11-15T14:05:18;16.75;;;3.60;;
58621;SDS011;44389;51.578;5.456;2022-11-15T14:07:52;12.93;;;4.97;;
58621;SDS011;44389;51.578;5.456;2022-11-15T14:10:28;15.50;;;2.97;;
58621;SDS011;44389;51.578;5.456;2022-11-15T14:12:53;16.63;;;3.08;;
58621;SDS011;44389;51.578;5.456;2022-11-15T14:17:55;12.40;;;4.00;;
58621;SDS011;44389;51.578;5.456;2022-11-15T14:20:31;13.82;;;2.75;;
58621;SDS011;44389;51.578;5.456;2022-11-15T14:22:59;11.65;;;2.92;;
58621;SDS011;44389;51.578;5.456;2022-11-15T14:25:30;19.85;;;3.17;;
58621;SDS011;44389;51.578;5.456;2022-11-15T14:30:55;13.48;;;2.50;;
58621;SDS011;44389;51.578;5.456;2022-11-15T14:33:26;17.63;;;3.33;;
58621;SDS011;44389;51.578;5.456;2022-11-15T14:35:53;18.15;;;4.70;;
58621;SDS011;44389;51.578;5.456;2022-11-15T14:38:21;22.27;;;3.15;;
58621;SDS011;44389;51.578;5.456;2022-11-15T14:40:46;15.52;;;3.70;;
58621;SDS011;44389;51.578;5.456;2022-11-15T14:43:12;18.50;;;4.00;;
58621;SDS011;44389;51.578;5.456;2022-11-15T14:45:38;16.15;;;3.88;;
58621;SDS011;44389;51.578;5.456;2022-11-15T14:48:04;14.88;;;4.43;;
58621;SDS011;44389;51.578;5.456;2022-11-15T14:50:29;15.65;;;3.78;;
58621;SDS011;44389;51.578;5.456;2022-11-15T14:52:56;17.30;;;4.63;;
58621;SDS011;44389;51.578;5.456;2022-11-15T14:55:29;13.95;;;4.07;;
58621;SDS011;44389;51.578;5.456;2022-11-15T14:58:01;18.25;;;4.60;;
58621;SDS011;44389;51.578;5.456;2022-11-15T15:00:28;14.95;;;4.15;;
58621;SDS011;44389;51.578;5.456;2022-11-15T15:02:56;13.43;;;3.72;;
58621;SDS011;44389;51.578;5.456;2022-11-15T15:05:23;13.50;;;4.82;;
58621;SDS011;44389;51.578;5.456;2022-11-15T15:10:25;19.23;;;5.78;;
58621;SDS011;44389;51.578;5.456;2022-11-15T15:12:55;16.20;;;3.92;;
58621;SDS011;44389;51.578;5.456;2022-11-15T15:15:24;14.73;;;4.72;;
58621;SDS011;44389;51.578;5.456;2022-11-15T15:17:51;17.30;;;5.93;;
58621;SDS011;44389;51.578;5.456;2022-11-15T15:20:17;20.10;;;5.05;;
58621;SDS011;44389;51.578;5.456;2022-11-15T15:22:42;16.98;;;4.70;;
58621;SDS011;44389;51.578;5.456;2022-11-15T15:25:18;14.73;;;5.45;;
58621;SDS011;44389;51.578;5.456;2022-11-15T15:27:51;13.70;;;4.60;;
58621;SDS011;44389;51.578;5.456;2022-11-15T15:30:17;19.75;;;4.65;;
58621;SDS011;44389;51.578;5.456;2022-11-15T15:32:43;12.90;;;4.70;;
58621;SDS011;44389;51.578;5.456;2022-11-15T15:35:10;30.33;;;11.18;;
58621;SDS011;44389;51.578;5.456;2022-11-15T15:37:37;22.05;;;4.90;;
58621;SDS011;44389;51.578;5.456;2022-11-15T15:40:02;18.65;;;4.95;;
58621;SDS011;44389;51.578;5.456;2022-11-15T15:42:27;14.35;;;4.05;;
58621;SDS011;44389;51.578;5.456;2022-11-15T15:44:53;13.30;;;4.47;;
58621;SDS011;44389;51.578;5.456;2022-11-15T15:47:19;14.00;;;4.78;;
58621;SDS011;44389;51.578;5.456;2022-11-15T15:49:45;10.70;;;4.28;;
58621;SDS011;44389;51.578;5.456;2022-11-15T15:52:11;14.07;;;4.50;;
58621;SDS011;44389;51.578;5.456;2022-11-15T15:54:37;20.35;;;5.15;;
58621;SDS011;44389;51.578;5.456;2022-11-15T15:57:04;20.90;;;6.50;;
58621;SDS011;44389;51.578;5.456;2022-11-15T15:59:30;15.38;;;4.80;;
58621;SDS011;44389;51.578;5.456;2022-11-15T16:01:56;20.65;;;7.50;;
58621;SDS011;44389;51.578;5.456;2022-11-15T16:04:21;22.45;;;7.20;;
58621;SDS011;44389;51.578;5.456;2022-11-15T16:06:46;18.95;;;6.05;;
58621;SDS011;44389;51.578;5.456;2022-11-15T16:09:13;16.92;;;5.15;;
58621;SDS011;44389;51.578;5.456;2022-11-15T16:11:39;18.40;;;5.13;;
58621;SDS011;44389;51.578;5.456;2022-11-15T16:14:06;18.85;;;6.07;;
58621;SDS011;44389;51.578;5.456;2022-11-15T16:16:32;16.05;;;5.10;;
58621;SDS011;44389;51.578;5.456;2022-11-15T16:18:57;22.15;;;6.05;;
58621;SDS011;44389;51.578;5.456;2022-11-15T16:21:22;18.77;;;5.93;;
58621;SDS011;44389;51.578;5.456;2022-11-15T16:23:48;18.60;;;6.85;;
58621;SDS011;44389;51.578;5.456;2022-11-15T16:28:50;17.70;;;6.53;;
58621;SDS011;44389;51.578;5.456;2022-11-15T16:31:15;21.75;;;7.88;;